createdAt,value
2023-08-15T00:01:03.838Z,1.60
2023-08-15T00:03:31.925Z,1.60
2023-08-15T00:05:59.996Z,1.60
2023-08-15T00:08:27.970Z,2.13
2023-08-15T00:10:57.339Z,2.10
2023-08-15T00:13:25.386Z,1.67
2023-08-15T00:15:53.317Z,1.83
2023-08-15T00:18:21.238Z,1.80
2023-08-15T00:20:49.485Z,1.97
2023-08-15T00:23:17.960Z,1.70
2023-08-15T00:25:45.933Z,1.53
2023-08-15T00:28:15.219Z,1.80
2023-08-15T00:30:44.012Z,1.80
2023-08-15T00:33:11.970Z,1.90
2023-08-15T00:35:39.937Z,1.80
2023-08-15T00:38:07.867Z,1.93
2023-08-15T00:40:35.833Z,1.70
2023-08-15T00:43:04.245Z,1.60
2023-08-15T00:45:33.559Z,2.00
2023-08-15T00:48:01.557Z,2.20
2023-08-15T00:50:29.477Z,1.87
2023-08-15T00:52:57.474Z,1.90
2023-08-15T00:55:25.412Z,1.90
2023-08-15T00:57:53.321Z,1.77
2023-08-15T01:00:21.246Z,1.63
2023-08-15T01:02:50.561Z,1.90
2023-08-15T01:05:18.577Z,2.10
2023-08-15T01:07:46.700Z,1.83
2023-08-15T01:10:14.704Z,1.93
2023-08-15T01:12:45.342Z,1.60
2023-08-15T01:15:16.016Z,1.73
2023-08-15T01:17:46.958Z,1.87
2023-08-15T01:20:18.340Z,1.80
2023-08-15T01:22:46.660Z,1.83
2023-08-15T01:25:15.991Z,1.80
2023-08-15T01:27:43.927Z,1.90
2023-08-15T01:30:12.570Z,1.97
2023-08-15T01:32:45.039Z,1.90
2023-08-15T01:35:16.132Z,2.07
2023-08-15T01:37:45.504Z,2.03
2023-08-15T01:40:13.432Z,1.90
2023-08-15T01:42:42.750Z,2.07
2023-08-15T01:45:11.482Z,1.60
2023-08-15T01:47:39.459Z,1.93
2023-08-15T01:50:08.854Z,2.10
2023-08-15T01:52:37.104Z,1.87
2023-08-15T01:55:05.328Z,1.60
2023-08-15T01:57:33.248Z,2.00
2023-08-15T02:00:02.559Z,2.20
2023-08-15T02:02:30.592Z,1.80
2023-08-15T02:05:03.121Z,1.77
2023-08-15T02:07:31.133Z,2.10
2023-08-15T02:09:59.077Z,1.87
2023-08-15T02:12:27.023Z,2.30
2023-08-15T02:14:54.935Z,1.80
2023-08-15T02:17:24.221Z,1.90
2023-08-15T02:19:52.675Z,1.53
2023-08-15T02:22:20.541Z,1.93
2023-08-15T02:24:48.764Z,2.10
2023-08-15T02:27:16.746Z,1.80
2023-08-15T02:29:44.946Z,2.17
2023-08-15T02:32:12.861Z,1.87
2023-08-15T02:34:42.180Z,2.20
2023-08-15T02:37:10.092Z,2.07
2023-08-15T02:39:37.982Z,2.17
2023-08-15T02:42:06.020Z,1.93
2023-08-15T02:44:34.310Z,2.00
2023-08-15T02:47:02.292Z,2.00
2023-08-15T02:49:30.273Z,2.00
2023-08-15T02:51:59.580Z,2.00
2023-08-15T02:54:27.537Z,1.90
2023-08-15T02:56:55.514Z,1.90
2023-08-15T02:59:23.413Z,2.03
2023-08-15T03:01:51.418Z,2.00
2023-08-15T03:04:19.797Z,1.80
2023-08-15T03:06:48.196Z,2.17
2023-08-15T03:09:18.099Z,2.50
2023-08-15T03:11:46.008Z,1.77
2023-08-15T03:14:13.910Z,2.20
2023-08-15T03:16:41.804Z,2.30
2023-08-15T03:19:09.759Z,2.10
2023-08-15T03:21:37.697Z,2.00
2023-08-15T03:24:05.971Z,2.10
2023-08-15T03:26:35.293Z,2.13
2023-08-15T03:29:03.227Z,1.90
2023-08-15T03:31:32.517Z,2.10
2023-08-15T03:34:00.478Z,2.20
2023-08-15T03:36:28.426Z,1.90
2023-08-15T03:38:56.503Z,2.20
2023-08-15T03:41:24.426Z,1.90
2023-08-15T03:43:53.705Z,2.13
2023-08-15T03:46:21.671Z,1.90
2023-08-15T03:48:49.634Z,2.90
2023-08-15T03:51:38.167Z,1.83
2023-08-15T03:54:05.789Z,2.07
2023-08-15T03:56:33.712Z,2.10
2023-08-15T03:59:03.013Z,2.17
2023-08-15T04:01:31.267Z,2.10
2023-08-15T04:03:59.399Z,2.10
2023-08-15T04:06:27.313Z,2.10
2023-08-15T04:08:55.238Z,2.30
2023-08-15T04:11:23.222Z,1.90
2023-08-15T04:13:51.175Z,2.17
2023-08-15T04:16:20.499Z,2.17
2023-08-15T04:18:48.459Z,2.10
2023-08-15T04:21:16.381Z,2.30
2023-08-15T04:23:44.284Z,2.37
2023-08-15T04:26:12.181Z,2.03
2023-08-15T04:28:40.190Z,2.10
2023-08-15T04:31:08.144Z,2.17
2023-08-15T04:33:37.520Z,2.00
2023-08-15T04:36:05.667Z,2.10
2023-08-15T04:38:33.580Z,2.00
2023-08-15T04:41:01.534Z,2.10
2023-08-15T04:43:29.482Z,2.10
2023-08-15T04:45:57.479Z,2.10
2023-08-15T04:48:25.468Z,1.90
2023-08-15T04:50:54.827Z,2.27
2023-08-15T04:53:22.737Z,2.23
2023-08-15T04:55:50.700Z,2.00
2023-08-15T04:58:18.630Z,2.00
2023-08-15T05:00:46.800Z,1.90
2023-08-15T05:03:14.791Z,1.80
2023-08-15T05:05:42.722Z,2.10
2023-08-15T05:08:13.332Z,2.17
2023-08-15T05:10:41.394Z,1.90
2023-08-15T05:13:09.693Z,2.03
2023-08-15T05:15:37.734Z,2.27
2023-08-15T05:18:06.646Z,2.10
2023-08-15T05:20:35.305Z,2.43
2023-08-15T05:23:03.252Z,2.30
2023-08-15T05:25:32.561Z,2.30
2023-08-15T05:28:00.540Z,2.13
2023-08-15T05:30:28.565Z,2.10
2023-08-15T05:32:56.545Z,2.30
2023-08-15T05:35:24.519Z,2.40
2023-08-15T05:37:52.431Z,2.23
2023-08-15T05:40:20.394Z,2.73
2023-08-15T05:42:49.811Z,2.00
2023-08-15T05:45:17.702Z,2.30
2023-08-15T05:47:46.081Z,2.37
2023-08-15T05:50:14.038Z,2.27
2023-08-15T05:52:42.045Z,2.30
2023-08-15T05:55:10.411Z,2.43
2023-08-15T05:57:38.434Z,2.67
2023-08-15T06:00:11.678Z,2.10
2023-08-15T06:02:41.178Z,2.37
2023-08-15T06:05:09.611Z,2.40
2023-08-15T06:07:37.600Z,2.20
2023-08-15T06:10:06.181Z,2.30
2023-08-15T06:12:34.244Z,2.40
2023-08-15T06:15:02.312Z,2.20
2023-08-15T06:17:31.739Z,2.90
2023-08-15T06:19:59.725Z,2.20
2023-08-15T06:22:28.103Z,2.27
2023-08-15T06:24:56.098Z,2.20
2023-08-15T06:27:24.071Z,2.70
2023-08-15T06:29:52.159Z,2.80
2023-08-15T06:32:39.250Z,2.70
2023-08-15T06:35:08.238Z,2.47
2023-08-15T06:37:36.215Z,2.83
2023-08-15T06:40:05.623Z,2.37
2023-08-15T06:42:33.763Z,2.70
2023-08-15T06:45:07.463Z,2.77
2023-08-15T06:47:35.604Z,2.60
2023-08-15T06:50:05.669Z,2.43
2023-08-15T06:52:33.874Z,3.10
2023-08-15T06:55:04.881Z,2.77
2023-08-15T06:57:33.512Z,2.30
2023-08-15T07:00:01.705Z,2.30
2023-08-15T07:02:29.745Z,2.70
2023-08-15T07:04:57.986Z,3.50
2023-08-15T07:07:27.623Z,2.60
2023-08-15T07:09:55.656Z,7.87
2023-08-15T07:12:23.942Z,2.70
2023-08-15T07:14:52.320Z,3.13
2023-08-15T07:17:20.363Z,2.67
2023-08-15T07:19:48.537Z,2.50
2023-08-15T07:22:16.921Z,2.60
2023-08-15T07:24:46.809Z,2.80
2023-08-15T07:27:14.795Z,2.63
2023-08-15T07:29:43.142Z,2.90
2023-08-15T07:32:13.377Z,3.30
2023-08-15T07:34:42.031Z,2.67
2023-08-15T07:37:10.011Z,2.70
2023-08-15T07:39:38.046Z,3.00
2023-08-15T07:42:07.687Z,2.73
2023-08-15T07:44:35.623Z,2.77
2023-08-15T07:47:03.659Z,2.73
2023-08-15T07:49:33.711Z,2.80
2023-08-15T07:52:01.718Z,3.07
2023-08-15T07:54:29.660Z,3.00
2023-08-15T07:56:57.502Z,3.03
2023-08-15T07:59:26.963Z,3.17
2023-08-15T08:01:55.164Z,3.40
2023-08-15T08:04:23.423Z,3.30
2023-08-15T08:06:52.112Z,3.67
2023-08-15T08:09:20.059Z,3.73
2023-08-15T08:11:49.572Z,2.80
2023-08-15T08:14:17.487Z,2.17
2023-08-15T08:16:46.999Z,2.30
2023-08-15T08:19:15.761Z,2.25
2023-08-15T08:21:43.957Z,1.80
2023-08-15T08:24:12.271Z,1.83
2023-08-15T08:26:40.385Z,2.08
2023-08-15T08:29:08.823Z,2.20
2023-08-15T08:31:38.904Z,1.90
2023-08-15T08:34:14.828Z,1.88
2023-08-15T08:36:43.054Z,2.17
2023-08-15T08:39:21.600Z,2.30
2023-08-15T08:41:58.235Z,2.17
2023-08-15T08:44:26.435Z,1.93
2023-08-15T08:46:54.562Z,1.92
2023-08-15T08:49:24.055Z,1.80
2023-08-15T08:51:52.400Z,2.03
2023-08-15T08:54:26.696Z,2.22
2023-08-15T08:57:05.512Z,1.70
2023-08-15T08:59:33.876Z,1.70
2023-08-15T09:02:01.883Z,1.95
2023-08-15T09:04:32.258Z,1.83
2023-08-15T09:07:00.355Z,1.85
2023-08-15T09:09:28.416Z,1.70
2023-08-15T09:11:56.621Z,1.90
2023-08-15T09:14:24.887Z,2.08
2023-08-15T09:16:52.894Z,1.95
2023-08-15T09:19:20.895Z,1.85
2023-08-15T09:21:51.311Z,1.75
2023-08-15T09:24:19.407Z,1.80
2023-08-15T09:26:47.392Z,1.90
2023-08-15T09:29:15.571Z,2.30
2023-08-15T09:31:44.744Z,1.80
2023-08-15T09:34:12.857Z,2.00
2023-08-15T09:36:41.126Z,1.80
2023-08-15T09:39:10.639Z,2.00
2023-08-15T09:41:42.324Z,2.00
2023-08-15T09:44:10.423Z,1.90
2023-08-15T09:46:39.276Z,2.33
2023-08-15T09:49:07.570Z,1.90
2023-08-15T09:51:35.636Z,1.90
2023-08-15T09:54:03.707Z,2.03
2023-08-15T09:56:33.306Z,2.00
2023-08-15T09:59:01.392Z,2.10
2023-08-15T10:01:29.662Z,2.13
2023-08-15T10:03:57.634Z,1.80
2023-08-15T10:06:26.083Z,1.52
2023-08-15T10:08:57.143Z,2.00
2023-08-15T10:11:25.428Z,2.17
2023-08-15T10:13:54.768Z,2.00
2023-08-15T10:16:22.919Z,1.90
2023-08-15T10:18:55.614Z,1.95
2023-08-15T10:21:24.571Z,1.77
2023-08-15T10:23:55.146Z,2.05
2023-08-15T10:26:23.663Z,1.75
2023-08-15T10:28:51.716Z,2.10
2023-08-15T10:31:39.204Z,2.00
2023-08-15T10:34:10.989Z,1.70
2023-08-15T10:36:41.935Z,1.95
2023-08-15T10:39:10.079Z,2.00
2023-08-15T10:41:38.241Z,1.83
2023-08-15T10:44:07.449Z,1.90
2023-08-15T10:46:36.849Z,1.80
2023-08-15T10:49:10.355Z,2.33
2023-08-15T10:51:39.281Z,1.73
2023-08-15T10:54:08.649Z,1.73
2023-08-15T10:56:38.008Z,1.83
2023-08-15T10:59:09.027Z,1.80
2023-08-15T11:01:38.029Z,2.10
2023-08-15T11:04:09.517Z,2.05
2023-08-15T11:06:43.111Z,2.00
2023-08-15T11:09:12.333Z,1.75
2023-08-15T11:11:40.795Z,1.88
2023-08-15T11:14:16.587Z,1.98
2023-08-15T11:16:44.974Z,1.92
2023-08-15T11:19:16.536Z,2.10
2023-08-15T11:21:44.854Z,2.00
2023-08-15T11:24:12.956Z,2.38
2023-08-15T11:26:42.710Z,2.40
2023-08-15T11:29:12.428Z,2.00
2023-08-15T11:31:40.749Z,1.80
2023-08-15T11:34:09.568Z,1.92
2023-08-15T11:36:39.845Z,1.65
2023-08-15T11:39:08.041Z,1.95
2023-08-15T11:41:36.803Z,2.00
2023-08-15T11:44:06.085Z,1.77
2023-08-15T11:46:52.657Z,1.80
2023-08-15T11:49:25.189Z,1.70
2023-08-15T11:52:03.655Z,1.90
2023-08-15T11:54:31.845Z,1.67
2023-08-15T11:57:00.440Z,1.60
2023-08-15T11:59:28.727Z,1.50
2023-08-15T12:01:56.959Z,2.10
2023-08-15T12:04:25.973Z,1.52
2023-08-15T12:06:58.302Z,1.63
2023-08-15T12:09:30.823Z,1.85
2023-08-15T12:11:59.324Z,1.75
2023-08-15T12:14:29.028Z,1.63
2023-08-15T12:17:03.902Z,1.65
2023-08-15T12:19:32.111Z,1.50
2023-08-15T12:22:01.827Z,1.40
2023-08-15T12:24:30.015Z,1.65
2023-08-15T12:26:58.510Z,1.52
2023-08-15T12:30:10.694Z,1.48
2023-08-15T12:32:13.946Z,1.50
2023-08-15T12:34:44.167Z,1.45
2023-08-15T12:37:13.694Z,1.55
2023-08-15T12:39:41.859Z,1.63
2023-08-15T12:42:10.074Z,1.63
2023-08-15T12:44:39.071Z,1.60
2023-08-15T12:47:07.519Z,1.50
2023-08-15T12:49:35.903Z,1.60
2023-08-15T12:52:04.644Z,1.60
2023-08-15T12:54:34.285Z,1.38
2023-08-15T12:57:03.223Z,1.63
2023-08-15T12:59:31.951Z,1.50
2023-08-15T13:02:00.023Z,1.60
2023-08-15T13:04:28.264Z,1.65
2023-08-15T13:06:56.422Z,1.80
2023-08-15T13:09:24.621Z,1.27
2023-08-15T13:11:54.584Z,2.08
2023-08-15T13:14:31.092Z,3.35
2023-08-15T13:17:02.999Z,1.77
2023-08-15T13:19:31.473Z,1.70
2023-08-15T13:22:00.354Z,1.65
2023-08-15T13:24:30.444Z,1.70
2023-08-15T13:26:59.997Z,1.67
2023-08-15T13:29:29.087Z,1.52
2023-08-15T13:31:57.532Z,1.60
2023-08-15T13:34:26.398Z,1.73
2023-08-15T13:36:54.423Z,1.60
2023-08-15T13:39:22.458Z,1.42
2023-08-15T13:41:50.540Z,1.85
2023-08-15T13:44:20.189Z,1.83
2023-08-15T13:46:48.908Z,1.40
2023-08-15T13:49:17.045Z,1.75
2023-08-15T13:51:45.118Z,1.65
2023-08-15T13:54:13.460Z,1.20
2023-08-15T13:56:41.511Z,1.40
2023-08-15T13:59:09.644Z,1.30
2023-08-15T14:01:39.495Z,1.38
2023-08-15T14:04:08.853Z,1.45
2023-08-15T14:06:36.908Z,1.20
2023-08-15T14:09:06.195Z,1.50
2023-08-15T14:11:34.161Z,1.30
2023-08-15T14:14:02.521Z,1.40
2023-08-15T14:16:30.558Z,1.45
2023-08-15T14:19:00.345Z,1.17
2023-08-15T14:21:28.918Z,1.33
2023-08-15T14:23:58.149Z,1.30
2023-08-15T14:26:26.722Z,1.30
2023-08-15T14:28:56.303Z,1.33
2023-08-15T14:31:24.791Z,1.20
2023-08-15T14:33:53.253Z,1.20
2023-08-15T14:36:23.519Z,1.30
2023-08-15T14:38:52.194Z,1.30
2023-08-15T14:41:20.667Z,1.40
2023-08-15T14:43:48.695Z,1.23
2023-08-15T14:46:16.833Z,1.20
2023-08-15T14:48:44.872Z,1.30
2023-08-15T14:51:13.420Z,1.27
2023-08-15T14:53:43.115Z,1.20
2023-08-15T14:56:11.144Z,1.15
2023-08-15T14:58:39.147Z,1.20
2023-08-15T15:01:08.415Z,1.38
2023-08-15T15:03:36.649Z,1.42
2023-08-15T15:06:05.326Z,1.20
2023-08-15T15:08:33.641Z,1.25
2023-08-15T15:11:04.797Z,1.23
2023-08-15T15:13:33.672Z,1.15
2023-08-15T15:16:01.891Z,1.10
2023-08-15T15:18:30.844Z,1.15
2023-08-15T15:20:59.589Z,1.15
2023-08-15T15:23:29.889Z,1.30
2023-08-15T15:25:57.856Z,1.20
2023-08-15T15:28:27.224Z,1.70
2023-08-15T15:30:58.421Z,1.20
2023-08-15T15:33:27.838Z,1.30
2023-08-15T15:35:57.394Z,1.52
2023-08-15T15:38:25.837Z,1.17
2023-08-15T15:40:53.919Z,1.20
2023-08-15T15:43:22.499Z,1.15
2023-08-15T15:45:52.113Z,1.40
2023-08-15T15:48:20.123Z,1.50
2023-08-15T15:50:48.599Z,1.23
2023-08-15T15:53:16.840Z,1.35
2023-08-15T15:55:45.095Z,1.40
2023-08-15T15:58:13.253Z,1.30
2023-08-15T16:00:41.368Z,1.10
2023-08-15T16:03:11.234Z,1.20
2023-08-15T16:05:39.854Z,1.13
2023-08-15T16:08:08.872Z,1.40
2023-08-15T16:10:41.700Z,1.20
2023-08-15T16:13:09.730Z,1.40
2023-08-15T16:15:38.055Z,1.25
2023-08-15T16:18:06.913Z,1.50
2023-08-15T16:20:36.409Z,1.40
2023-08-15T16:23:04.515Z,1.20
2023-08-15T16:25:32.714Z,1.27
2023-08-15T16:28:00.923Z,1.38
2023-08-15T16:30:29.195Z,1.27
2023-08-15T16:32:57.366Z,1.10
2023-08-15T16:35:25.683Z,1.27
2023-08-15T16:37:55.893Z,1.23
2023-08-15T16:40:25.774Z,1.48
2023-08-15T16:42:56.807Z,1.40
2023-08-15T16:45:25.135Z,1.42
2023-08-15T16:47:53.627Z,1.17
2023-08-15T16:50:21.985Z,1.45
2023-08-15T16:52:50.153Z,1.35
2023-08-15T16:55:20.060Z,1.23
2023-08-15T16:57:48.661Z,1.23
2023-08-15T17:00:18.075Z,1.20
2023-08-15T17:02:46.818Z,1.25
2023-08-15T17:05:15.237Z,1.17
2023-08-15T17:07:44.574Z,1.10
2023-08-15T17:10:14.238Z,1.00
2023-08-15T17:12:43.825Z,1.30
2023-08-15T17:15:12.583Z,1.08
2023-08-15T17:17:41.046Z,1.05
2023-08-15T17:20:11.077Z,1.20
2023-08-15T17:22:39.338Z,1.08
2023-08-15T17:25:09.100Z,1.10
2023-08-15T17:27:38.466Z,1.05
2023-08-15T17:30:09.496Z,1.02
2023-08-15T17:32:37.636Z,1.10
2023-08-15T17:35:06.453Z,1.17
2023-08-15T17:37:34.456Z,1.20
2023-08-15T17:40:02.965Z,1.10
2023-08-15T17:42:31.085Z,1.05
2023-08-15T17:44:59.140Z,1.20
2023-08-15T17:47:28.915Z,1.20
2023-08-15T17:49:57.403Z,1.10
2023-08-15T17:52:25.424Z,1.30
2023-08-15T17:54:53.491Z,1.30
2023-08-15T17:57:21.631Z,1.50
2023-08-15T17:59:50.854Z,1.30
2023-08-15T18:02:19.120Z,1.30
2023-08-15T18:04:51.613Z,1.15
2023-08-15T18:07:20.116Z,1.25
2023-08-15T18:09:48.381Z,1.20
2023-08-15T18:12:16.445Z,1.30
2023-08-15T18:14:44.477Z,1.20
2023-08-15T18:17:12.405Z,1.25
2023-08-15T18:19:40.374Z,1.33
2023-08-15T18:22:11.576Z,1.02
2023-08-15T18:24:41.997Z,1.20
2023-08-15T18:27:11.532Z,1.20
2023-08-15T18:29:40.439Z,1.20
2023-08-15T18:32:09.034Z,1.30
2023-08-15T18:34:37.258Z,1.40
2023-08-15T18:37:05.721Z,1.20
2023-08-15T18:39:35.277Z,1.33
2023-08-15T18:42:03.462Z,1.30
2023-08-15T18:44:31.492Z,1.15
2023-08-15T18:47:00.811Z,0.93
2023-08-15T18:49:28.818Z,1.13
2023-08-15T18:51:56.964Z,0.90
2023-08-15T18:54:25.217Z,1.20
2023-08-15T18:56:54.739Z,1.00
2023-08-15T18:59:24.784Z,1.00
2023-08-15T19:01:53.138Z,1.60
2023-08-15T19:04:21.326Z,2.42
2023-08-15T19:06:49.579Z,2.30
2023-08-15T19:09:18.172Z,2.40
2023-08-15T19:11:46.184Z,2.75
2023-08-15T19:14:16.229Z,3.50
2023-08-15T19:16:44.271Z,2.65
2023-08-15T19:19:12.489Z,3.00
2023-08-15T19:21:40.690Z,2.67
2023-08-15T19:24:09.135Z,3.00
2023-08-15T19:26:37.140Z,2.33
2023-08-15T19:29:05.460Z,3.05
2023-08-15T19:31:35.966Z,2.40
2023-08-15T19:34:04.909Z,2.55
2023-08-15T19:36:33.033Z,2.80
2023-08-15T19:39:01.187Z,3.30
2023-08-15T19:41:29.471Z,2.67
2023-08-15T19:43:59.768Z,2.85
2023-08-15T19:46:27.916Z,2.38
2023-08-15T19:48:57.341Z,2.58
2023-08-15T19:51:25.743Z,2.03
2023-08-15T19:53:54.369Z,2.10
2023-08-15T19:56:23.237Z,1.80
2023-08-15T19:58:51.496Z,1.75
2023-08-15T20:01:19.554Z,2.05
2023-08-15T20:03:47.492Z,2.17
2023-08-15T20:06:17.211Z,2.22
2023-08-15T20:08:44.940Z,2.60
2023-08-15T20:11:12.867Z,2.50
2023-08-15T20:13:40.993Z,1.80
2023-08-15T20:16:09.041Z,1.75
2023-08-15T20:18:37.519Z,1.55
2023-08-15T20:21:05.811Z,2.20
2023-08-15T20:23:35.152Z,2.05
2023-08-15T20:26:03.463Z,2.03
2023-08-15T20:28:31.588Z,2.17
2023-08-15T20:30:59.640Z,1.85
2023-08-15T20:33:27.853Z,1.60
2023-08-15T20:35:55.997Z,1.88
2023-08-15T20:38:24.119Z,2.83
2023-08-15T20:40:53.870Z,3.40
2023-08-15T20:43:21.888Z,2.40
2023-08-15T20:45:52.558Z,2.53
2023-08-15T20:48:21.169Z,2.57
2023-08-15T20:50:49.560Z,1.95
2023-08-15T20:53:17.567Z,1.67
2023-08-15T20:55:45.869Z,1.55
2023-08-15T20:58:15.193Z,1.45
2023-08-15T21:00:46.082Z,1.48
2023-08-15T21:03:14.879Z,1.40
2023-08-15T21:05:44.235Z,1.30
2023-08-15T21:08:12.721Z,1.40
2023-08-15T21:10:41.070Z,1.35
2023-08-15T21:13:09.363Z,1.30
2023-08-15T21:15:39.086Z,1.50
2023-08-15T21:18:07.516Z,1.40
2023-08-15T21:20:35.447Z,1.50
2023-08-15T21:23:04.187Z,1.50
2023-08-15T21:25:32.199Z,1.30
2023-08-15T21:28:00.318Z,1.50
2023-08-15T21:30:28.364Z,1.25
2023-08-15T21:32:57.866Z,1.27
2023-08-15T21:35:25.864Z,1.30
2023-08-15T21:37:53.943Z,1.70
2023-08-15T21:40:22.581Z,1.20
2023-08-15T21:42:50.841Z,1.30
2023-08-15T21:45:19.916Z,1.30
2023-08-15T21:47:48.527Z,1.00
2023-08-15T21:52:46.490Z,1.50
2023-08-15T21:55:16.198Z,1.30
2023-08-15T21:57:44.264Z,1.43
2023-08-15T22:00:13.680Z,1.30
2023-08-15T22:02:42.123Z,1.30
2023-08-15T22:05:10.515Z,1.60
2023-08-15T22:07:39.953Z,1.63
2023-08-15T22:10:09.173Z,1.50
2023-08-15T22:12:37.109Z,1.30
2023-08-15T22:15:06.002Z,1.50
2023-08-15T22:17:45.190Z,1.70
2023-08-15T22:20:14.585Z,1.40
2023-08-15T22:22:44.054Z,1.50
2023-08-15T22:25:12.248Z,1.40
2023-08-15T22:27:40.161Z,1.40
2023-08-15T22:30:09.510Z,1.73
2023-08-15T22:32:37.548Z,1.30
2023-08-15T22:35:06.100Z,1.60
2023-08-15T22:37:34.205Z,1.50
2023-08-15T22:40:04.961Z,1.33
2023-08-15T22:42:33.025Z,1.53
2023-08-15T22:45:01.293Z,1.47
2023-08-15T22:47:29.402Z,1.53
2023-08-15T22:49:57.557Z,1.40
2023-08-15T22:52:25.969Z,1.50
2023-08-15T22:54:54.889Z,1.50
2023-08-15T22:57:24.408Z,1.43
2023-08-15T22:59:52.497Z,1.57
2023-08-15T23:02:20.465Z,1.30
2023-08-15T23:04:48.388Z,1.60
2023-08-15T23:07:16.310Z,1.50
2023-08-15T23:09:44.296Z,1.60
2023-08-15T23:12:12.261Z,1.80
2023-08-15T23:14:41.671Z,1.63
2023-08-15T23:17:09.636Z,1.40
2023-08-15T23:19:37.610Z,1.40
2023-08-15T23:22:05.753Z,1.40
2023-08-15T23:24:33.701Z,1.30
2023-08-15T23:27:02.727Z,1.87
2023-08-15T23:29:31.390Z,1.80
2023-08-15T23:32:03.723Z,1.40
2023-08-15T23:34:31.691Z,1.30
2023-08-15T23:36:59.614Z,1.40
2023-08-15T23:39:27.546Z,1.17
2023-08-15T23:41:55.509Z,1.40
2023-08-15T23:44:23.529Z,1.33
2023-08-15T23:46:51.826Z,1.20
2023-08-15T23:49:21.290Z,1.67
2023-08-15T23:51:49.321Z,1.27
2023-08-15T23:54:17.232Z,1.40
2023-08-15T23:56:45.184Z,1.20
2023-08-15T23:59:13.133Z,1.47
